メインページ
METAR-TAF:

METAR-TAF

空港 :

Durango-La Plata County Airport

デュランゴ, コロラド州, アメリカ合衆国

緯度: 37-08-35N, 経度: 107-45-35W, 海抜: 2038m

現時点の気象観測

当レポートは11分前の03:53(UTC)に作成
無風
気温 -3°C
湿度 80%
気圧 1027 hPa
視程: 16.1km
晴天

METAR: KDRO 110353Z AUTO 00000KT 10SM CLR M03/M06 A3032 RMK AO2 SLP318 T10331056

時間: 21:04 (04:04 UTC)

予報

当レポートは4時間44分前の23:20(UTC)に作成
予報は11日の 00時(UTC)から 11日の 24時(UTC)まで有効
北東の風 4kt
視程: 10km
高度25000ftの千切れ雲あり

TAF: KDRO 102320Z 1100/1124 04004KT P6SM BKN250

4,000以上の空港の気象観測と天気予報(METAR報とTAF報)

利用可能な観測所は地図上に黄色い丸と赤い丸で示す。

丸の上にカーソルを重ねると観測所名を参照できる。

次にクリックすると気象観測と天気予報を参照できる。

マップの切り替え:黒色「×」印の緑ボタンをクリックして拡大、「-」印の緑ボタンをクリックして縮小、緑色の三角印をクリックして隣りの地図に切り替え


METAR-TAF: